Altama, Georgia
Current Conditions -  °F | °C
As of 2:55 PM on Friday 24 Oct 2014 (Local Time) from KBQK Reporting Station
Clear Clear  
Wind Chill: 73°   Ceiling: Unl
Heat Index: 73°   Visibility: 10mi
Dew Point: 45°   Wind: 3mph
Humidity: 36%   Direction: 110°ESE
Pressure: 30"   Gusts: NA
Location:  31.1773°N, 81.4991°W
Report Text: KBQK 241855Z AUTO 11003KT 10SM CLR 23/07 A3000 RMK AO1
Loading
Personal Weather Stations






























Interactive Weather Map New forecast layout! Learn more

10-Day Weather Forecast

Advertisements
Track Severe Weather on mobile